sensor_id;sensor_type;location;lat;lon;timestamp;pressure;altitude;pressure_sealevel;temperature;humidity
75536;BME280;64119;52.070;20.804;2024-02-15T00:01:14;100999.98;;;4.98;72.56
75536;BME280;64119;52.070;20.804;2024-02-15T00:03:42;100996.45;;;4.99;72.47
75536;BME280;64119;52.070;20.804;2024-02-15T00:06:09;100996.45;;;4.99;72.60
75536;BME280;64119;52.070;20.804;2024-02-15T00:08:37;100995.34;;;4.99;72.51
75536;BME280;64119;52.070;20.804;2024-02-15T00:11:05;100997.51;;;4.99;72.52
75536;BME280;64119;52.070;20.804;2024-02-15T00:13:33;100993.92;;;5.00;72.45
75536;BME280;64119;52.070;20.804;2024-02-15T00:16:01;100999.36;;;5.00;72.37
75536;BME280;64119;52.070;20.804;2024-02-15T00:18:31;100995.88;;;5.00;72.51
75536;BME280;64119;52.070;20.804;2024-02-15T00:20:59;100999.52;;;5.00;72.42
75536;BME280;64119;52.070;20.804;2024-02-15T00:23:27;100996.34;;;5.00;72.37
75536;BME280;64119;52.070;20.804;2024-02-15T00:25:55;100997.89;;;4.99;72.50
75536;BME280;64119;52.070;20.804;2024-02-15T00:28:24;100999.69;;;4.98;72.83
75536;BME280;64119;52.070;20.804;2024-02-15T00:30:54;100997.98;;;5.00;72.48
75536;BME280;64119;52.070;20.804;2024-02-15T00:33:21;100995.61;;;4.99;72.39
75536;BME280;64119;52.070;20.804;2024-02-15T00:35:50;100997.17;;;4.97;72.70
75536;BME280;64119;52.070;20.804;2024-02-15T00:38:18;101001.04;;;4.97;72.64
75536;BME280;64119;52.070;20.804;2024-02-15T00:40:46;101002.79;;;4.97;72.58
75536;BME280;64119;52.070;20.804;2024-02-15T00:43:14;101006.86;;;4.98;72.50
75536;BME280;64119;52.070;20.804;2024-02-15T00:45:42;101005.56;;;4.97;72.55
75536;BME280;64119;52.070;20.804;2024-02-15T00:48:10;101001.98;;;4.96;72.63
75536;BME280;64119;52.070;20.804;2024-02-15T00:50:38;101001.23;;;4.97;72.66
75536;BME280;64119;52.070;20.804;2024-02-15T00:53:06;101004.72;;;4.97;72.58
75536;BME280;64119;52.070;20.804;2024-02-15T00:55:33;101004.50;;;4.95;72.67
75536;BME280;64119;52.070;20.804;2024-02-15T00:58:02;101000.81;;;4.95;72.75
75536;BME280;64119;52.070;20.804;2024-02-15T01:00:29;101000.70;;;4.95;72.58
75536;BME280;64119;52.070;20.804;2024-02-15T01:02:57;101000.56;;;4.94;72.82
75536;BME280;64119;52.070;20.804;2024-02-15T01:05:25;100997.60;;;4.94;72.93
75536;BME280;64119;52.070;20.804;2024-02-15T01:07:53;100997.09;;;4.94;72.85
75536;BME280;64119;52.070;20.804;2024-02-15T01:10:23;100995.90;;;4.94;72.86
75536;BME280;64119;52.070;20.804;2024-02-15T01:12:54;100993.01;;;4.92;72.93
75536;BME280;64119;52.070;20.804;2024-02-15T01:15:22;100992.86;;;4.92;72.86
75536;BME280;64119;52.070;20.804;2024-02-15T01:17:50;100989.39;;;4.94;72.74
75536;BME280;64119;52.070;20.804;2024-02-15T01:20:18;100994.83;;;4.92;72.92
75536;BME280;64119;52.070;20.804;2024-02-15T01:22:45;100992.13;;;4.91;72.93
75536;BME280;64119;52.070;20.804;2024-02-15T01:25:13;100994.28;;;4.90;73.08
75536;BME280;64119;52.070;20.804;2024-02-15T01:27:43;100989.30;;;4.91;72.90
75536;BME280;64119;52.070;20.804;2024-02-15T01:30:11;100991.70;;;4.89;73.10
75536;BME280;64119;52.070;20.804;2024-02-15T01:32:39;100986.59;;;4.90;73.10
75536;BME280;64119;52.070;20.804;2024-02-15T01:35:10;100985.97;;;4.89;73.13
75536;BME280;64119;52.070;20.804;2024-02-15T01:37:38;100981.58;;;4.87;73.52
75536;BME280;64119;52.070;20.804;2024-02-15T01:40:06;100982.13;;;4.87;73.24
75536;BME280;64119;52.070;20.804;2024-02-15T01:42:34;100977.95;;;4.87;73.38
75536;BME280;64119;52.070;20.804;2024-02-15T01:45:02;100976.70;;;4.87;73.43
75536;BME280;64119;52.070;20.804;2024-02-15T01:47:31;100980.91;;;4.87;73.61
75536;BME280;64119;52.070;20.804;2024-02-15T01:49:59;100978.13;;;4.87;73.34
75536;BME280;64119;52.070;20.804;2024-02-15T01:52:27;100977.17;;;4.88;73.42
75536;BME280;64119;52.070;20.804;2024-02-15T01:54:57;100974.63;;;4.88;73.39
75536;BME280;64119;52.070;20.804;2024-02-15T01:57:25;100969.36;;;4.86;73.92
75536;BME280;64119;52.070;20.804;2024-02-15T01:59:53;100971.22;;;4.85;73.84
75536;BME280;64119;52.070;20.804;2024-02-15T02:02:22;100973.11;;;4.86;73.83
75536;BME280;64119;52.070;20.804;2024-02-15T02:04:52;100970.02;;;4.85;74.20
75536;BME280;64119;52.070;20.804;2024-02-15T02:07:20;100966.17;;;4.85;74.03
75536;BME280;64119;52.070;20.804;2024-02-15T02:09:48;100963.06;;;4.85;74.26
75536;BME280;64119;52.070;20.804;2024-02-15T02:12:16;100964.09;;;4.85;74.23
75536;BME280;64119;52.070;20.804;2024-02-15T02:14:45;100963.84;;;4.84;74.55
75536;BME280;64119;52.070;20.804;2024-02-15T02:17:13;100966.05;;;4.84;74.15
75536;BME280;64119;52.070;20.804;2024-02-15T02:19:42;100971.44;;;4.85;74.00
75536;BME280;64119;52.070;20.804;2024-02-15T02:22:11;100972.96;;;4.85;74.07
75536;BME280;64119;52.070;20.804;2024-02-15T02:24:55;100975.29;;;4.85;74.25
75536;BME280;64119;52.070;20.804;2024-02-15T02:27:23;100975.35;;;4.86;74.02
75536;BME280;64119;52.070;20.804;2024-02-15T02:29:51;100971.78;;;4.87;74.28
75536;BME280;64119;52.070;20.804;2024-02-15T02:32:19;100966.49;;;4.87;74.08
75536;BME280;64119;52.070;20.804;2024-02-15T02:34:47;100965.17;;;4.88;74.09
75536;BME280;64119;52.070;20.804;2024-02-15T02:37:15;100960.65;;;4.88;74.21
75536;BME280;64119;52.070;20.804;2024-02-15T02:39:43;100954.69;;;4.86;74.10
75536;BME280;64119;52.070;20.804;2024-02-15T02:42:11;100960.67;;;4.88;74.08
75536;BME280;64119;52.070;20.804;2024-02-15T02:44:39;100959.49;;;4.87;74.24
75536;BME280;64119;52.070;20.804;2024-02-15T02:47:06;100960.56;;;4.87;74.15
75536;BME280;64119;52.070;20.804;2024-02-15T02:49:37;100960.41;;;4.87;74.27
75536;BME280;64119;52.070;20.804;2024-02-15T02:52:05;100960.05;;;4.87;74.23
75536;BME280;64119;52.070;20.804;2024-02-15T02:54:33;100959.72;;;4.87;74.21
75536;BME280;64119;52.070;20.804;2024-02-15T02:57:02;100957.98;;;4.86;74.25
75536;BME280;64119;52.070;20.804;2024-02-15T02:59:34;100957.33;;;4.88;74.43
75536;BME280;64119;52.070;20.804;2024-02-15T03:02:03;100958.61;;;4.87;74.18
75536;BME280;64119;52.070;20.804;2024-02-15T03:04:32;100958.51;;;4.87;74.35
75536;BME280;64119;52.070;20.804;2024-02-15T03:07:00;100960.52;;;4.87;74.40
75536;BME280;64119;52.070;20.804;2024-02-15T03:09:28;100961.47;;;4.89;74.39
75536;BME280;64119;52.070;20.804;2024-02-15T03:11:57;100961.49;;;4.89;74.51
75536;BME280;64119;52.070;20.804;2024-02-15T03:14:24;100963.20;;;4.89;74.30
75536;BME280;64119;52.070;20.804;2024-02-15T03:16:55;100964.01;;;4.88;74.55
75536;BME280;64119;52.070;20.804;2024-02-15T03:19:23;100962.67;;;4.87;74.44
75536;BME280;64119;52.070;20.804;2024-02-15T03:21:51;100967.11;;;4.88;74.64
75536;BME280;64119;52.070;20.804;2024-02-15T03:24:20;100965.89;;;4.88;74.57
75536;BME280;64119;52.070;20.804;2024-02-15T03:26:48;100965.17;;;4.88;74.69
75536;BME280;64119;52.070;20.804;2024-02-15T03:29:16;100967.33;;;4.88;74.65
75536;BME280;64119;52.070;20.804;2024-02-15T03:31:44;100970.05;;;4.89;74.57
75536;BME280;64119;52.070;20.804;2024-02-15T03:34:12;100970.27;;;4.88;74.56
75536;BME280;64119;52.070;20.804;2024-02-15T03:36:42;100965.22;;;4.86;75.32
75536;BME280;64119;52.070;20.804;2024-02-15T03:39:10;100963.98;;;4.86;74.68
75536;BME280;64119;52.070;20.804;2024-02-15T03:41:38;100960.85;;;4.86;74.92
75536;BME280;64119;52.070;20.804;2024-02-15T03:44:06;100964.91;;;4.85;75.09
75536;BME280;64119;52.070;20.804;2024-02-15T03:46:33;100964.30;;;4.84;75.12
75536;BME280;64119;52.070;20.804;2024-02-15T03:49:01;100964.96;;;4.85;75.18
75536;BME280;64119;52.070;20.804;2024-02-15T03:51:29;100964.66;;;4.84;75.24
75536;BME280;64119;52.070;20.804;2024-02-15T03:53:57;100961.23;;;4.83;75.22
75536;BME280;64119;52.070;20.804;2024-02-15T03:56:26;100959.32;;;4.83;75.28
75536;BME280;64119;52.070;20.804;2024-02-15T03:58:53;100958.94;;;4.84;74.92
75536;BME280;64119;52.070;20.804;2024-02-15T04:01:21;100960.90;;;4.81;75.48
75536;BME280;64119;52.070;20.804;2024-02-15T04:03:49;100961.70;;;4.82;75.39
75536;BME280;64119;52.070;20.804;2024-02-15T04:06:17;100959.90;;;4.79;75.82
75536;BME280;64119;52.070;20.804;2024-02-15T04:08:45;100958.04;;;4.78;75.31
75536;BME280;64119;52.070;20.804;2024-02-15T04:11:13;100961.41;;;4.78;75.35
75536;BME280;64119;52.070;20.804;2024-02-15T04:13:41;100961.14;;;4.77;75.66
75536;BME280;64119;52.070;20.804;2024-02-15T04:16:10;100964.64;;;4.77;75.60
75536;BME280;64119;52.070;20.804;2024-02-15T04:18:38;100962.20;;;4.77;75.56
75536;BME280;64119;52.070;20.804;2024-02-15T04:21:06;100959.77;;;4.77;76.11
75536;BME280;64119;52.070;20.804;2024-02-15T04:23:35;100961.09;;;4.77;75.96
75536;BME280;64119;52.070;20.804;2024-02-15T04:26:03;100957.60;;;4.77;76.34
75536;BME280;64119;52.070;20.804;2024-02-15T04:28:31;100956.83;;;4.76;76.55
75536;BME280;64119;52.070;20.804;2024-02-15T04:31:01;100953.31;;;4.76;76.33
75536;BME280;64119;52.070;20.804;2024-02-15T04:33:29;100956.23;;;4.77;76.09
75536;BME280;64119;52.070;20.804;2024-02-15T04:35:57;100956.55;;;4.75;77.24
75536;BME280;64119;52.070;20.804;2024-02-15T04:38:26;100955.61;;;4.76;76.16
75536;BME280;64119;52.070;20.804;2024-02-15T04:40:54;100956.69;;;4.76;76.56
75536;BME280;64119;52.070;20.804;2024-02-15T04:43:22;100957.95;;;4.73;77.35
75536;BME280;64119;52.070;20.804;2024-02-15T04:45:53;100959.28;;;4.74;76.55
75536;BME280;64119;52.070;20.804;2024-02-15T04:48:20;100963.79;;;4.73;77.11
75536;BME280;64119;52.070;20.804;2024-02-15T04:50:49;100961.41;;;4.72;77.16
75536;BME280;64119;52.070;20.804;2024-02-15T04:53:17;100958.63;;;4.72;77.02
75536;BME280;64119;52.070;20.804;2024-02-15T04:55:44;100960.14;;;4.72;76.78
75536;BME280;64119;52.070;20.804;2024-02-15T04:58:12;100962.18;;;4.71;77.26
75536;BME280;64119;52.070;20.804;2024-02-15T05:00:40;100966.20;;;4.71;77.02
75536;BME280;64119;52.070;20.804;2024-02-15T05:03:08;100964.79;;;4.71;77.17
75536;BME280;64119;52.070;20.804;2024-02-15T05:05:37;100972.17;;;4.71;77.18
75536;BME280;64119;52.070;20.804;2024-02-15T05:08:06;100974.97;;;4.71;77.01
75536;BME280;64119;52.070;20.804;2024-02-15T05:10:37;100974.20;;;4.72;77.10
75536;BME280;64119;52.070;20.804;2024-02-15T05:13:04;100975.39;;;4.72;77.06
75536;BME280;64119;52.070;20.804;2024-02-15T05:15:32;100975.02;;;4.73;77.17
75536;BME280;64119;52.070;20.804;2024-02-15T05:18:00;100977.25;;;4.73;77.33
75536;BME280;64119;52.070;20.804;2024-02-15T05:20:29;100978.89;;;4.72;77.40
75536;BME280;64119;52.070;20.804;2024-02-15T05:22:57;100979.65;;;4.72;77.77
75536;BME280;64119;52.070;20.804;2024-02-15T05:25:24;100981.89;;;4.72;77.83
75536;BME280;64119;52.070;20.804;2024-02-15T05:27:54;100982.33;;;4.73;77.83
75536;BME280;64119;52.070;20.804;2024-02-15T05:30:25;100979.00;;;4.73;77.92
75536;BME280;64119;52.070;20.804;2024-02-15T05:32:53;100976.27;;;4.72;78.40
75536;BME280;64119;52.070;20.804;2024-02-15T05:35:23;100982.30;;;4.71;78.68
75536;BME280;64119;52.070;20.804;2024-02-15T05:37:53;100982.16;;;4.69;79.01
75536;BME280;64119;52.070;20.804;2024-02-15T05:40:21;100988.32;;;4.69;78.68
75536;BME280;64119;52.070;20.804;2024-02-15T05:42:54;100985.71;;;4.68;78.91
75536;BME280;64119;52.070;20.804;2024-02-15T05:47:53;100992.85;;;4.65;79.64
75536;BME280;64119;52.070;20.804;2024-02-15T05:50:21;100992.52;;;4.63;80.16
75536;BME280;64119;52.070;20.804;2024-02-15T05:52:49;100993.31;;;4.62;81.18
75536;BME280;64119;52.070;20.804;2024-02-15T05:55:20;100992.16;;;4.61;81.15
75536;BME280;64119;52.070;20.804;2024-02-15T05:57:48;100989.88;;;4.57;81.98
75536;BME280;64119;52.070;20.804;2024-02-15T06:00:16;100990.95;;;4.55;81.85
75536;BME280;64119;52.070;20.804;2024-02-15T06:02:50;100992.56;;;4.52;82.23
75536;BME280;64119;52.070;20.804;2024-02-15T06:05:19;100990.61;;;4.51;82.56
75536;BME280;64119;52.070;20.804;2024-02-15T06:07:48;100997.87;;;4.50;82.21
75536;BME280;64119;52.070;20.804;2024-02-15T06:10:16;100995.36;;;4.49;83.24
75536;BME280;64119;52.070;20.804;2024-02-15T06:12:45;100997.85;;;4.44;84.07
75536;BME280;64119;52.070;20.804;2024-02-15T06:15:14;100997.31;;;4.42;85.11
75536;BME280;64119;52.070;20.804;2024-02-15T06:17:46;100995.61;;;4.40;84.35
75536;BME280;64119;52.070;20.804;2024-02-15T06:20:15;101000.30;;;4.40;84.42
75536;BME280;64119;52.070;20.804;2024-02-15T06:22:47;101005.85;;;4.39;85.56
75536;BME280;64119;52.070;20.804;2024-02-15T06:25:14;101009.50;;;4.37;85.78
75536;BME280;64119;52.070;20.804;2024-02-15T06:27:48;101010.95;;;4.35;85.76
75536;BME280;64119;52.070;20.804;2024-02-15T06:30:19;101013.40;;;4.33;85.52
75536;BME280;64119;52.070;20.804;2024-02-15T06:33:05;101017.21;;;4.29;87.19
75536;BME280;64119;52.070;20.804;2024-02-15T06:35:52;101018.00;;;4.26;88.68
75536;BME280;64119;52.070;20.804;2024-02-15T06:38:39;101018.23;;;4.23;90.30
75536;BME280;64119;52.070;20.804;2024-02-15T06:41:25;101023.09;;;4.22;89.07
75536;BME280;64119;52.070;20.804;2024-02-15T06:43:55;101023.09;;;4.20;90.06
75536;BME280;64119;52.070;20.804;2024-02-15T06:46:23;101024.05;;;4.19;88.47
75536;BME280;64119;52.070;20.804;2024-02-15T06:48:51;101022.89;;;4.20;88.35
75536;BME280;64119;52.070;20.804;2024-02-15T06:51:20;101021.38;;;4.20;88.03
75536;BME280;64119;52.070;20.804;2024-02-15T06:53:48;101021.98;;;4.17;89.49
75536;BME280;64119;52.070;20.804;2024-02-15T06:56:17;101023.80;;;4.14;90.32
75536;BME280;64119;52.070;20.804;2024-02-15T06:58:49;101025.64;;;4.11;93.44
75536;BME280;64119;52.070;20.804;2024-02-15T07:01:17;101025.40;;;4.09;92.16
75536;BME280;64119;52.070;20.804;2024-02-15T07:03:45;101026.84;;;4.09;91.44
75536;BME280;64119;52.070;20.804;2024-02-15T07:06:13;101028.70;;;4.10;92.30
75536;BME280;64119;52.070;20.804;2024-02-15T07:08:41;101031.21;;;4.09;92.07
75536;BME280;64119;52.070;20.804;2024-02-15T07:11:09;101032.45;;;4.09;91.85
75536;BME280;64119;52.070;20.804;2024-02-15T07:13:37;101030.75;;;4.11;92.01
75536;BME280;64119;52.070;20.804;2024-02-15T07:16:08;101032.83;;;4.11;94.39
75536;BME280;64119;52.070;20.804;2024-02-15T07:18:36;101030.36;;;4.11;92.07
75536;BME280;64119;52.070;20.804;2024-02-15T07:21:04;101029.14;;;4.11;93.01
75536;BME280;64119;52.070;20.804;2024-02-15T07:23:38;101031.98;;;4.08;93.85
75536;BME280;64119;52.070;20.804;2024-02-15T07:26:07;101032.81;;;4.09;92.07
75536;BME280;64119;52.070;20.804;2024-02-15T07:28:35;101031.97;;;4.11;92.40
75536;BME280;64119;52.070;20.804;2024-02-15T07:31:04;101033.94;;;4.12;92.98
75536;BME280;64119;52.070;20.804;2024-02-15T07:33:31;101031.71;;;4.14;92.10
75536;BME280;64119;52.070;20.804;2024-02-15T07:36:00;101029.48;;;4.15;92.53
75536;BME280;64119;52.070;20.804;2024-02-15T07:38:28;101031.27;;;4.19;94.33
75536;BME280;64119;52.070;20.804;2024-02-15T07:40:57;101032.73;;;4.20;95.10
75536;BME280;64119;52.070;20.804;2024-02-15T07:43:24;101032.55;;;4.22;93.88
75536;BME280;64119;52.070;20.804;2024-02-15T07:45:52;101032.46;;;4.25;98.50
75536;BME280;64119;52.070;20.804;2024-02-15T07:48:20;101031.11;;;4.26;96.48
75536;BME280;64119;52.070;20.804;2024-02-15T07:50:48;101030.04;;;4.29;95.62
75536;BME280;64119;52.070;20.804;2024-02-15T07:53:16;101029.43;;;4.31;95.11
75536;BME280;64119;52.070;20.804;2024-02-15T07:55:44;101027.60;;;4.35;94.16
75536;BME280;64119;52.070;20.804;2024-02-15T07:58:11;101026.15;;;4.35;94.16
75536;BME280;64119;52.070;20.804;2024-02-15T08:00:41;101026.95;;;4.40;94.01
75536;BME280;64119;52.070;20.804;2024-02-15T08:03:08;101026.11;;;4.42;95.36
75536;BME280;64119;52.070;20.804;2024-02-15T08:05:37;101026.05;;;4.44;94.36
75536;BME280;64119;52.070;20.804;2024-02-15T08:08:06;101026.29;;;4.47;94.43
75536;BME280;64119;52.070;20.804;2024-02-15T08:10:34;101023.32;;;4.51;94.75
75536;BME280;64119;52.070;20.804;2024-02-15T08:13:01;101020.98;;;4.56;94.36
75536;BME280;64119;52.070;20.804;2024-02-15T08:15:29;101023.86;;;4.63;93.69
75536;BME280;64119;52.070;20.804;2024-02-15T08:17:57;101023.61;;;4.68;94.37
75536;BME280;64119;52.070;20.804;2024-02-15T08:20:25;101025.85;;;4.74;93.19
75536;BME280;64119;52.070;20.804;2024-02-15T08:22:53;101027.40;;;4.78;93.63
75536;BME280;64119;52.070;20.804;2024-02-15T08:25:21;101025.34;;;4.84;93.31
75536;BME280;64119;52.070;20.804;2024-02-15T08:27:49;101027.77;;;4.88;93.88
75536;BME280;64119;52.070;20.804;2024-02-15T08:30:18;101029.87;;;4.92;94.08
75536;BME280;64119;52.070;20.804;2024-02-15T08:32:51;101034.86;;;4.97;93.22
75536;BME280;64119;52.070;20.804;2024-02-15T08:35:23;101034.20;;;5.02;93.03
75536;BME280;64119;52.070;20.804;2024-02-15T08:37:51;101036.02;;;5.09;93.81
75536;BME280;64119;52.070;20.804;2024-02-15T08:40:20;101032.25;;;5.16;93.97
75536;BME280;64119;52.070;20.804;2024-02-15T08:42:53;101030.52;;;5.21;95.43
75536;BME280;64119;52.070;20.804;2024-02-15T08:45:21;101033.77;;;5.26;93.89
75536;BME280;64119;52.070;20.804;2024-02-15T08:47:50;101037.19;;;5.33;93.14
75536;BME280;64119;52.070;20.804;2024-02-15T08:50:21;101039.73;;;5.40;94.07
75536;BME280;64119;52.070;20.804;2024-02-15T08:52:51;101039.65;;;5.47;93.08
75536;BME280;64119;52.070;20.804;2024-02-15T08:55:19;101039.91;;;5.53;92.93
75536;BME280;64119;52.070;20.804;2024-02-15T08:57:52;101042.86;;;5.61;92.16
75536;BME280;64119;52.070;20.804;2024-02-15T09:00:20;101043.16;;;5.65;92.25
75536;BME280;64119;52.070;20.804;2024-02-15T09:02:48;101049.50;;;5.67;92.19
75536;BME280;64119;52.070;20.804;2024-02-15T09:05:17;101045.33;;;5.69;92.60
75536;BME280;64119;52.070;20.804;2024-02-15T09:07:46;101046.42;;;5.72;92.00
75536;BME280;64119;52.070;20.804;2024-02-15T09:10:19;101046.09;;;5.75;92.13
75536;BME280;64119;52.070;20.804;2024-02-15T09:12:47;101052.07;;;5.81;91.72
75536;BME280;64119;52.070;20.804;2024-02-15T09:15:17;101054.80;;;5.86;91.59
75536;BME280;64119;52.070;20.804;2024-02-15T09:17:45;101056.19;;;5.88;91.62
75536;BME280;64119;52.070;20.804;2024-02-15T09:20:16;101054.16;;;5.89;93.22
75536;BME280;64119;52.070;20.804;2024-02-15T09:22:51;101059.62;;;5.92;91.88
75536;BME280;64119;52.070;20.804;2024-02-15T09:25:19;101060.52;;;5.96;92.09
75536;BME280;64119;52.070;20.804;2024-02-15T09:27:47;101060.77;;;6.01;91.55
75536;BME280;64119;52.070;20.804;2024-02-15T09:30:16;101063.21;;;6.07;91.59
75536;BME280;64119;52.070;20.804;2024-02-15T09:32:45;101062.55;;;6.10;92.30
75536;BME280;64119;52.070;20.804;2024-02-15T09:35:14;101064.84;;;6.14;91.54
75536;BME280;64119;52.070;20.804;2024-02-15T09:37:45;101060.38;;;6.16;91.79
75536;BME280;64119;52.070;20.804;2024-02-15T09:40:14;101059.86;;;6.22;91.89
75536;BME280;64119;52.070;20.804;2024-02-15T09:42:44;101060.40;;;6.25;91.66
75536;BME280;64119;52.070;20.804;2024-02-15T09:45:13;101061.92;;;6.28;91.99
75536;BME280;64119;52.070;20.804;2024-02-15T09:47:43;101060.69;;;6.30;91.65
75536;BME280;64119;52.070;20.804;2024-02-15T09:50:14;101060.30;;;6.28;91.83
75536;BME280;64119;52.070;20.804;2024-02-15T09:52:52;101059.67;;;6.29;91.68
75536;BME280;64119;52.070;20.804;2024-02-15T09:55:25;101057.83;;;6.32;91.74
75536;BME280;64119;52.070;20.804;2024-02-15T09:57:54;101054.54;;;6.35;92.05
75536;BME280;64119;52.070;20.804;2024-02-15T10:00:22;101054.96;;;6.36;92.37
75536;BME280;64119;52.070;20.804;2024-02-15T10:02:51;101051.95;;;6.38;93.44
75536;BME280;64119;52.070;20.804;2024-02-15T10:05:21;101051.36;;;6.41;92.64
75536;BME280;64119;52.070;20.804;2024-02-15T10:07:51;101049.16;;;6.42;92.24
75536;BME280;64119;52.070;20.804;2024-02-15T10:10:20;101050.90;;;6.42;92.94
75536;BME280;64119;52.070;20.804;2024-02-15T10:12:48;101050.53;;;6.44;92.59
75536;BME280;64119;52.070;20.804;2024-02-15T10:18:03;101046.26;;;6.48;93.76
75536;BME280;64119;52.070;20.804;2024-02-15T10:20:31;101047.48;;;6.52;92.71
75536;BME280;64119;52.070;20.804;2024-02-15T10:25:35;101048.08;;;6.55;93.55
75536;BME280;64119;52.070;20.804;2024-02-15T10:28:04;101045.09;;;6.58;92.91
75536;BME280;64119;52.070;20.804;2024-02-15T10:30:37;101044.58;;;6.62;94.12
75536;BME280;64119;52.070;20.804;2024-02-15T10:33:06;101038.39;;;6.68;94.32
75536;BME280;64119;52.070;20.804;2024-02-15T10:35:37;101040.63;;;6.70;94.77
75536;BME280;64119;52.070;20.804;2024-02-15T10:38:06;101037.88;;;6.69;95.36
75536;BME280;64119;52.070;20.804;2024-02-15T10:40:36;101038.14;;;6.72;95.52
75536;BME280;64119;52.070;20.804;2024-02-15T10:43:05;101037.71;;;6.75;94.67
75536;BME280;64119;52.070;20.804;2024-02-15T10:45:35;101037.91;;;6.78;94.24
75536;BME280;64119;52.070;20.804;2024-02-15T10:48:10;101032.06;;;6.83;93.97
75536;BME280;64119;52.070;20.804;2024-02-15T10:50:39;101032.08;;;6.86;95.21
75536;BME280;64119;52.070;20.804;2024-02-15T10:53:21;101029.40;;;6.90;94.66
75536;BME280;64119;52.070;20.804;2024-02-15T10:56:03;101026.70;;;6.92;95.78
75536;BME280;64119;52.070;20.804;2024-02-15T10:58:44;101025.34;;;6.95;94.88
75536;BME280;64119;52.070;20.804;2024-02-15T11:01:17;101025.45;;;6.98;96.30
75536;BME280;64119;52.070;20.804;2024-02-15T11:03:52;101028.82;;;7.01;95.35
75536;BME280;64119;52.070;20.804;2024-02-15T11:06:30;101028.46;;;7.06;94.26
75536;BME280;64119;52.070;20.804;2024-02-15T11:08:59;101026.11;;;7.12;95.61
75536;BME280;64119;52.070;20.804;2024-02-15T11:11:29;101026.96;;;7.21;94.45
75536;BME280;64119;52.070;20.804;2024-02-15T11:16:44;101021.34;;;7.39;94.19
75536;BME280;64119;52.070;20.804;2024-02-15T11:22:00;101020.21;;;7.59;93.67
75536;BME280;64119;52.070;20.804;2024-02-15T11:24:31;101019.13;;;7.71;94.26
75536;BME280;64119;52.070;20.804;2024-02-15T11:27:09;101007.23;;;7.87;93.56
75536;BME280;64119;52.070;20.804;2024-02-15T11:29:49;101007.85;;;8.06;93.20
75536;BME280;64119;52.070;20.804;2024-02-15T11:35:25;101000.04;;;8.42;92.71
75536;BME280;64119;52.070;20.804;2024-02-15T11:37:55;100998.65;;;8.67;91.41
75536;BME280;64119;52.070;20.804;2024-02-15T11:40:27;100997.33;;;8.80;90.74
75536;BME280;64119;52.070;20.804;2024-02-15T11:43:01;100994.64;;;8.87;90.56
75536;BME280;64119;52.070;20.804;2024-02-15T11:45:30;100995.80;;;8.89;90.46
75536;BME280;64119;52.070;20.804;2024-02-15T11:48:01;100998.42;;;8.91;90.14
75536;BME280;64119;52.070;20.804;2024-02-15T11:50:34;100998.17;;;8.88;90.15
75536;BME280;64119;52.070;20.804;2024-02-15T11:53:06;100998.25;;;8.89;90.52
75536;BME280;64119;52.070;20.804;2024-02-15T11:55:40;100997.66;;;8.90;90.41
75536;BME280;64119;52.070;20.804;2024-02-15T11:58:09;100995.05;;;8.90;90.29
75536;BME280;64119;52.070;20.804;2024-02-15T12:00:39;100998.17;;;8.96;90.19
75536;BME280;64119;52.070;20.804;2024-02-15T12:03:26;100998.88;;;9.03;90.62
75536;BME280;64119;52.070;20.804;2024-02-15T12:06:30;100993.98;;;9.07;89.86
75536;BME280;64119;52.070;20.804;2024-02-15T12:09:18;100990.35;;;9.10;89.62
75536;BME280;64119;52.070;20.804;2024-02-15T12:12:09;100987.31;;;9.14;89.70
75536;BME280;64119;52.070;20.804;2024-02-15T12:15:00;100992.45;;;9.16;89.52
75536;BME280;64119;52.070;20.804;2024-02-15T12:17:47;100986.14;;;9.20;89.11
75536;BME280;64119;52.070;20.804;2024-02-15T12:20:34;100985.73;;;9.21;88.78
75536;BME280;64119;52.070;20.804;2024-02-15T12:23:03;100989.41;;;9.27;88.64
75536;BME280;64119;52.070;20.804;2024-02-15T12:25:35;100988.71;;;9.31;88.65
75536;BME280;64119;52.070;20.804;2024-02-15T12:28:04;100991.34;;;9.37;88.12
75536;BME280;64119;52.070;20.804;2024-02-15T12:30:34;100990.45;;;9.42;88.20
75536;BME280;64119;52.070;20.804;2024-02-15T12:33:09;100988.89;;;9.48;87.48
75536;BME280;64119;52.070;20.804;2024-02-15T12:35:47;100988.95;;;9.57;87.69
75536;BME280;64119;52.070;20.804;2024-02-15T12:38:15;100992.40;;;9.63;87.42
75536;BME280;64119;52.070;20.804;2024-02-15T12:40:45;100987.92;;;9.66;86.93
75536;BME280;64119;52.070;20.804;2024-02-15T12:43:15;100992.10;;;9.70;86.43
75536;BME280;64119;52.070;20.804;2024-02-15T12:45:43;100989.00;;;9.71;85.79
75536;BME280;64119;52.070;20.804;2024-02-15T12:48:11;100991.42;;;9.74;86.49
75536;BME280;64119;52.070;20.804;2024-02-15T12:50:39;100985.02;;;9.76;86.57
75536;BME280;64119;52.070;20.804;2024-02-15T12:53:07;100982.08;;;9.79;86.68
75536;BME280;64119;52.070;20.804;2024-02-15T12:55:37;100979.13;;;9.79;86.15
75536;BME280;64119;52.070;20.804;2024-02-15T12:58:12;100975.91;;;9.82;86.26
75536;BME280;64119;52.070;20.804;2024-02-15T13:00:42;100970.23;;;9.79;86.24
75536;BME280;64119;52.070;20.804;2024-02-15T13:03:12;100972.86;;;9.76;85.95
75536;BME280;64119;52.070;20.804;2024-02-15T13:05:43;100968.73;;;9.78;86.46
75536;BME280;64119;52.070;20.804;2024-02-15T13:08:12;100965.85;;;9.80;86.15
75536;BME280;64119;52.070;20.804;2024-02-15T13:10:43;100966.58;;;9.80;85.73
75536;BME280;64119;52.070;20.804;2024-02-15T13:13:12;100964.49;;;9.78;85.44
75536;BME280;64119;52.070;20.804;2024-02-15T13:15:42;100959.15;;;9.80;85.89
75536;BME280;64119;52.070;20.804;2024-02-15T13:18:11;100960.83;;;9.87;85.68
75536;BME280;64119;52.070;20.804;2024-02-15T13:20:42;100960.33;;;10.00;85.00